sensor_id;sensor_type;location;lat;lon;timestamp;pressure;altitude;pressure_sealevel;temperature;humidity
14594;BME280;7383;52.354;9.756;2023-10-19T00:00:47;-12651.38;;;11.26;100.00
14594;BME280;7383;52.354;9.756;2023-10-19T00:03:15;-12650.50;;;11.21;100.00
14594;BME280;7383;52.354;9.756;2023-10-19T00:05:42;-12650.25;;;11.20;100.00
14594;BME280;7383;52.354;9.756;2023-10-19T00:08:10;-12650.25;;;11.20;100.00
14594;BME280;7383;52.354;9.756;2023-10-19T00:10:41;-12649.72;;;11.17;100.00
14594;BME280;7383;52.354;9.756;2023-10-19T00:13:10;-12649.81;;;11.17;100.00
14594;BME280;7383;52.354;9.756;2023-10-19T00:15:39;-12649.91;;;11.18;100.00
14594;BME280;7383;52.354;9.756;2023-10-19T00:18:07;-12650.41;;;11.21;100.00
14594;BME280;7383;52.354;9.756;2023-10-19T00:20:47;-12650.69;;;11.22;100.00
14594;BME280;7383;52.354;9.756;2023-10-19T00:23:18;-12650.16;;;11.19;100.00
14594;BME280;7383;52.354;9.756;2023-10-19T00:25:49;-12650.06;;;11.19;100.00
14594;BME280;7383;52.354;9.756;2023-10-19T00:28:17;-12650.34;;;11.20;100.00
14594;BME280;7383;52.354;9.756;2023-10-19T00:30:45;-12650.34;;;11.20;100.00
14594;BME280;7383;52.354;9.756;2023-10-19T00:33:13;-12649.91;;;11.18;100.00
14594;BME280;7383;52.354;9.756;2023-10-19T00:35:43;-12649.91;;;11.18;100.00
14594;BME280;7383;52.354;9.756;2023-10-19T00:38:15;-12650.25;;;11.20;100.00
14594;BME280;7383;52.354;9.756;2023-10-19T00:40:53;-12649.53;;;11.16;100.00
14594;BME280;7383;52.354;9.756;2023-10-19T00:43:32;-12649.28;;;11.14;100.00
14594;BME280;7383;52.354;9.756;2023-10-19T00:46:02;-12649.47;;;11.15;100.00
14594;BME280;7383;52.354;9.756;2023-10-19T00:48:30;-12648.41;;;11.09;100.00
14594;BME280;7383;52.354;9.756;2023-10-19T00:50:58;-12648.75;;;11.11;100.00
14594;BME280;7383;52.354;9.756;2023-10-19T00:53:35;-12648.25;;;11.08;100.00
14594;BME280;7383;52.354;9.756;2023-10-19T00:56:06;-12648.06;;;11.07;100.00
14594;BME280;7383;52.354;9.756;2023-10-19T00:58:36;-12648.06;;;11.07;100.00
14594;BME280;7383;52.354;9.756;2023-10-19T01:01:07;-12648.31;;;11.09;100.00
14594;BME280;7383;52.354;9.756;2023-10-19T01:03:36;-12648.59;;;11.10;100.00
14594;BME280;7383;52.354;9.756;2023-10-19T01:06:04;-12648.59;;;11.10;100.00
14594;BME280;7383;52.354;9.756;2023-10-19T01:08:38;-12648.75;;;11.11;100.00
14594;BME280;7383;52.354;9.756;2023-10-19T01:11:11;-12648.41;;;11.09;100.00
14594;BME280;7383;52.354;9.756;2023-10-19T01:13:41;-12648.59;;;11.10;100.00
14594;BME280;7383;52.354;9.756;2023-10-19T01:16:14;-12648.41;;;11.09;100.00
14594;BME280;7383;52.354;9.756;2023-10-19T01:18:47;-12647.88;;;11.06;100.00
14594;BME280;7383;52.354;9.756;2023-10-19T01:21:13;-12647.38;;;11.03;100.00
14594;BME280;7383;52.354;9.756;2023-10-19T01:23:46;-12647.72;;;11.05;100.00
14594;BME280;7383;52.354;9.756;2023-10-19T01:26:13;-12647.38;;;11.03;100.00
14594;BME280;7383;52.354;9.756;2023-10-19T01:28:47;-12647.53;;;11.04;100.00
14594;BME280;7383;52.354;9.756;2023-10-19T01:31:18;-12647.38;;;11.03;100.00
14594;BME280;7383;52.354;9.756;2023-10-19T01:33:56;-12646.56;;;10.99;100.00
14594;BME280;7383;52.354;9.756;2023-10-19T01:36:24;-12646.56;;;10.99;100.00
14594;BME280;7383;52.354;9.756;2023-10-19T01:38:53;-12646.56;;;10.99;100.00
14594;BME280;7383;52.354;9.756;2023-10-19T01:41:21;-12646.13;;;10.96;100.00
14594;BME280;7383;52.354;9.756;2023-10-19T01:43:50;-12645.88;;;10.95;100.00
14594;BME280;7383;52.354;9.756;2023-10-19T01:46:19;-12646.22;;;10.97;100.00
14594;BME280;7383;52.354;9.756;2023-10-19T01:48:51;-12646.50;;;10.98;100.00
14594;BME280;7383;52.354;9.756;2023-10-19T01:51:21;-12647.38;;;11.03;100.00
14594;BME280;7383;52.354;9.756;2023-10-19T01:53:49;-12647.38;;;11.03;100.00
14594;BME280;7383;52.354;9.756;2023-10-19T01:56:16;-12646.84;;;11.00;100.00
14594;BME280;7383;52.354;9.756;2023-10-19T01:58:44;-12646.41;;;10.98;100.00
14594;BME280;7383;52.354;9.756;2023-10-19T02:01:12;-12645.97;;;10.95;100.00
14594;BME280;7383;52.354;9.756;2023-10-19T02:03:46;-12646.13;;;10.96;100.00
14594;BME280;7383;52.354;9.756;2023-10-19T02:06:13;-12646.06;;;10.96;100.00
14594;BME280;7383;52.354;9.756;2023-10-19T02:08:45;-12645.88;;;10.95;100.00
14594;BME280;7383;52.354;9.756;2023-10-19T02:11:15;-12645.09;;;10.90;100.00
14594;BME280;7383;52.354;9.756;2023-10-19T02:13:44;-12644.03;;;10.84;100.00
14594;BME280;7383;52.354;9.756;2023-10-19T02:16:12;-12644.13;;;10.84;100.00
14594;BME280;7383;52.354;9.756;2023-10-19T02:18:40;-12644.56;;;10.87;100.00
14594;BME280;7383;52.354;9.756;2023-10-19T02:21:06;-12644.22;;;10.85;100.00
14594;BME280;7383;52.354;9.756;2023-10-19T02:23:32;-12644.47;;;10.86;100.00
14594;BME280;7383;52.354;9.756;2023-10-19T02:26:00;-12644.13;;;10.84;100.00
14594;BME280;7383;52.354;9.756;2023-10-19T02:28:29;-12644.47;;;10.86;100.00
14594;BME280;7383;52.354;9.756;2023-10-19T02:30:57;-12644.22;;;10.85;100.00
14594;BME280;7383;52.354;9.756;2023-10-19T02:33:22;-12643.88;;;10.83;100.00
14594;BME280;7383;52.354;9.756;2023-10-19T02:35:51;-12643.25;;;10.79;100.00
14594;BME280;7383;52.354;9.756;2023-10-19T02:38:17;-12643.09;;;10.78;100.00
14594;BME280;7383;52.354;9.756;2023-10-19T02:40:44;-12642.66;;;10.76;100.00
14594;BME280;7383;52.354;9.756;2023-10-19T02:43:11;-12642.66;;;10.76;100.00
14594;BME280;7383;52.354;9.756;2023-10-19T02:45:39;-12643.09;;;10.78;100.00
14594;BME280;7383;52.354;9.756;2023-10-19T02:48:05;-12643.25;;;10.79;100.00
14594;BME280;7383;52.354;9.756;2023-10-19T02:50:36;-12643.44;;;10.80;100.00
14594;BME280;7383;52.354;9.756;2023-10-19T02:53:02;-12643.44;;;10.80;100.00
14594;BME280;7383;52.354;9.756;2023-10-19T02:55:31;-12643.69;;;10.82;100.00
14594;BME280;7383;52.354;9.756;2023-10-19T02:57:56;-12643.78;;;10.82;100.00
14594;BME280;7383;52.354;9.756;2023-10-19T03:00:24;-12644.03;;;10.84;100.00
14594;BME280;7383;52.354;9.756;2023-10-19T03:02:59;-12644.31;;;10.85;100.00
14594;BME280;7383;52.354;9.756;2023-10-19T03:05:26;-12643.34;;;10.80;100.00
14594;BME280;7383;52.354;9.756;2023-10-19T03:07:53;-12642.56;;;10.75;100.00
14594;BME280;7383;52.354;9.756;2023-10-19T03:10:18;-12643.63;;;10.81;100.00
14594;BME280;7383;52.354;9.756;2023-10-19T03:12:49;-12643.97;;;10.83;100.00
14594;BME280;7383;52.354;9.756;2023-10-19T03:15:15;-12644.41;;;10.86;100.00
14594;BME280;7383;52.354;9.756;2023-10-19T03:17:43;-12644.41;;;10.86;100.00
14594;BME280;7383;52.354;9.756;2023-10-19T03:20:11;-12644.47;;;10.86;100.00
14594;BME280;7383;52.354;9.756;2023-10-19T03:22:37;-12644.56;;;10.87;100.00
14594;BME280;7383;52.354;9.756;2023-10-19T03:25:04;-12644.66;;;10.88;100.00
14594;BME280;7383;52.354;9.756;2023-10-19T03:27:58;-12644.56;;;10.87;100.00
14594;BME280;7383;52.354;9.756;2023-10-19T03:30:31;-12643.97;;;10.83;100.00
14594;BME280;7383;52.354;9.756;2023-10-19T03:32:58;-12644.03;;;10.84;100.00
14594;BME280;7383;52.354;9.756;2023-10-19T03:35:27;-12643.69;;;10.82;100.00
14594;BME280;7383;52.354;9.756;2023-10-19T03:37:54;-12643.16;;;10.79;100.00
14594;BME280;7383;52.354;9.756;2023-10-19T03:40:23;-12643.00;;;10.78;100.00
14594;BME280;7383;52.354;9.756;2023-10-19T03:42:55;-12642.75;;;10.76;100.00
14594;BME280;7383;52.354;9.756;2023-10-19T03:45:21;-12643.00;;;10.78;100.00
14594;BME280;7383;52.354;9.756;2023-10-19T03:47:50;-12642.91;;;10.77;100.00
14594;BME280;7383;52.354;9.756;2023-10-19T03:50:18;-12642.56;;;10.75;100.00
14594;BME280;7383;52.354;9.756;2023-10-19T03:52:48;-12642.38;;;10.74;100.00
14594;BME280;7383;52.354;9.756;2023-10-19T03:55:14;-12642.75;;;10.76;100.00
14594;BME280;7383;52.354;9.756;2023-10-19T03:57:44;-12642.75;;;10.76;100.00
14594;BME280;7383;52.354;9.756;2023-10-19T04:00:16;-12642.81;;;10.77;100.00
14594;BME280;7383;52.354;9.756;2023-10-19T04:02:50;-12643.25;;;10.79;100.00
14594;BME280;7383;52.354;9.756;2023-10-19T04:05:18;-12642.75;;;10.76;100.00
14594;BME280;7383;52.354;9.756;2023-10-19T04:07:49;-12642.66;;;10.76;100.00
14594;BME280;7383;52.354;9.756;2023-10-19T04:10:19;-12642.38;;;10.74;100.00
14594;BME280;7383;52.354;9.756;2023-10-19T04:13:03;-12641.94;;;10.72;100.00
14594;BME280;7383;52.354;9.756;2023-10-19T04:15:35;-12642.31;;;10.74;100.00
14594;BME280;7383;52.354;9.756;2023-10-19T04:18:02;-12642.75;;;10.76;100.00
14594;BME280;7383;52.354;9.756;2023-10-19T04:20:49;-12642.31;;;10.74;100.00
14594;BME280;7383;52.354;9.756;2023-10-19T04:23:23;-12643.09;;;10.78;100.00
14594;BME280;7383;52.354;9.756;2023-10-19T04:25:52;-12643.16;;;10.79;100.00
14594;BME280;7383;52.354;9.756;2023-10-19T04:28:21;-12643.25;;;10.79;100.00
14594;BME280;7383;52.354;9.756;2023-10-19T04:30:56;-12643.00;;;10.78;100.00
14594;BME280;7383;52.354;9.756;2023-10-19T04:33:25;-12642.91;;;10.77;100.00
14594;BME280;7383;52.354;9.756;2023-10-19T04:35:53;-12642.47;;;10.75;100.00
14594;BME280;7383;52.354;9.756;2023-10-19T04:38:23;-12642.03;;;10.72;100.00
14594;BME280;7383;52.354;9.756;2023-10-19T04:40:49;-12643.09;;;10.78;100.00
14594;BME280;7383;52.354;9.756;2023-10-19T04:43:16;-12643.34;;;10.80;100.00
14594;BME280;7383;52.354;9.756;2023-10-19T04:45:42;-12643.25;;;10.79;100.00
14594;BME280;7383;52.354;9.756;2023-10-19T04:48:10;-12643.25;;;10.79;100.00
14594;BME280;7383;52.354;9.756;2023-10-19T04:50:36;-12643.63;;;10.81;100.00
14594;BME280;7383;52.354;9.756;2023-10-19T04:53:04;-12643.34;;;10.80;100.00
14594;BME280;7383;52.354;9.756;2023-10-19T04:55:32;-12643.25;;;10.79;100.00
14594;BME280;7383;52.354;9.756;2023-10-19T04:57:59;-12643.16;;;10.79;100.00
14594;BME280;7383;52.354;9.756;2023-10-19T05:00:25;-12643.25;;;10.79;100.00
14594;BME280;7383;52.354;9.756;2023-10-19T05:02:53;-12642.47;;;10.75;100.00
14594;BME280;7383;52.354;9.756;2023-10-19T05:05:20;-12643.00;;;10.78;100.00
14594;BME280;7383;52.354;9.756;2023-10-19T05:07:47;-12641.94;;;10.72;100.00
14594;BME280;7383;52.354;9.756;2023-10-19T05:10:13;-12642.31;;;10.74;100.00
14594;BME280;7383;52.354;9.756;2023-10-19T05:12:41;-12642.13;;;10.73;100.00
14594;BME280;7383;52.354;9.756;2023-10-19T05:15:08;-12642.31;;;10.74;100.00
14594;BME280;7383;52.354;9.756;2023-10-19T05:17:35;-12641.69;;;10.70;100.00
14594;BME280;7383;52.354;9.756;2023-10-19T05:20:02;-12641.94;;;10.72;100.00
14594;BME280;7383;52.354;9.756;2023-10-19T05:22:32;-12641.94;;;10.72;100.00
14594;BME280;7383;52.354;9.756;2023-10-19T05:24:59;-12641.94;;;10.72;100.00
14594;BME280;7383;52.354;9.756;2023-10-19T05:27:26;-12642.91;;;10.77;100.00
14594;BME280;7383;52.354;9.756;2023-10-19T05:29:54;-12642.66;;;10.76;100.00
14594;BME280;7383;52.354;9.756;2023-10-19T05:32:21;-12642.66;;;10.76;100.00
14594;BME280;7383;52.354;9.756;2023-10-19T05:34:49;-12642.75;;;10.76;100.00
14594;BME280;7383;52.354;9.756;2023-10-19T05:37:16;-12642.47;;;10.75;100.00
14594;BME280;7383;52.354;9.756;2023-10-19T05:39:43;-12642.81;;;10.77;100.00
14594;BME280;7383;52.354;9.756;2023-10-19T05:42:10;-12643.16;;;10.79;100.00
14594;BME280;7383;52.354;9.756;2023-10-19T05:44:38;-12643.25;;;10.79;100.00
14594;BME280;7383;52.354;9.756;2023-10-19T05:47:10;-12643.16;;;10.79;100.00
14594;BME280;7383;52.354;9.756;2023-10-19T05:49:37;-12643.34;;;10.80;100.00
14594;BME280;7383;52.354;9.756;2023-10-19T05:52:04;-12642.81;;;10.77;100.00
14594;BME280;7383;52.354;9.756;2023-10-19T05:54:30;-12642.66;;;10.76;100.00
14594;BME280;7383;52.354;9.756;2023-10-19T05:56:57;-12641.69;;;10.70;100.00
14594;BME280;7383;52.354;9.756;2023-10-19T05:59:24;-12641.59;;;10.70;100.00
14594;BME280;7383;52.354;9.756;2023-10-19T06:01:52;-12641.88;;;10.71;100.00
14594;BME280;7383;52.354;9.756;2023-10-19T06:04:19;-12641.94;;;10.72;100.00
14594;BME280;7383;52.354;9.756;2023-10-19T06:06:46;-12642.56;;;10.75;100.00
14594;BME280;7383;52.354;9.756;2023-10-19T06:09:13;-12642.66;;;10.76;100.00
14594;BME280;7383;52.354;9.756;2023-10-19T06:11:40;-12643.16;;;10.79;100.00
14594;BME280;7383;52.354;9.756;2023-10-19T06:14:10;-12643.09;;;10.78;100.00
14594;BME280;7383;52.354;9.756;2023-10-19T06:16:37;-12642.75;;;10.76;100.00
14594;BME280;7383;52.354;9.756;2023-10-19T06:19:03;-12643.00;;;10.78;100.00
14594;BME280;7383;52.354;9.756;2023-10-19T06:21:31;-12643.16;;;10.79;100.00
14594;BME280;7383;52.354;9.756;2023-10-19T06:23:59;-12643.63;;;10.81;100.00
14594;BME280;7383;52.354;9.756;2023-10-19T06:26:25;-12643.63;;;10.81;100.00
14594;BME280;7383;52.354;9.756;2023-10-19T06:28:52;-12643.63;;;10.81;100.00
14594;BME280;7383;52.354;9.756;2023-10-19T06:31:24;-12643.97;;;10.83;100.00
14594;BME280;7383;52.354;9.756;2023-10-19T06:33:51;-12643.34;;;10.80;100.00
14594;BME280;7383;52.354;9.756;2023-10-19T06:36:17;-12643.69;;;10.82;100.00
14594;BME280;7383;52.354;9.756;2023-10-19T06:38:45;-12644.47;;;10.86;100.00
14594;BME280;7383;52.354;9.756;2023-10-19T06:41:14;-12645.09;;;10.90;100.00
14594;BME280;7383;52.354;9.756;2023-10-19T06:43:41;-12644.75;;;10.88;100.00
14594;BME280;7383;52.354;9.756;2023-10-19T06:46:08;-12644.56;;;10.87;100.00
14594;BME280;7383;52.354;9.756;2023-10-19T06:48:36;-12644.47;;;10.86;100.00
14594;BME280;7383;52.354;9.756;2023-10-19T06:51:03;-12644.75;;;10.88;100.00
14594;BME280;7383;52.354;9.756;2023-10-19T06:53:31;-12644.31;;;10.85;100.00
14594;BME280;7383;52.354;9.756;2023-10-19T06:55:59;-12644.03;;;10.84;100.00
14594;BME280;7383;52.354;9.756;2023-10-19T06:58:26;-12644.22;;;10.85;100.00
14594;BME280;7383;52.354;9.756;2023-10-19T07:00:53;-12643.97;;;10.83;100.00
14594;BME280;7383;52.354;9.756;2023-10-19T07:03:25;-12644.41;;;10.86;100.00
14594;BME280;7383;52.354;9.756;2023-10-19T07:05:53;-12644.84;;;10.89;100.00
14594;BME280;7383;52.354;9.756;2023-10-19T07:08:20;-12644.84;;;10.89;100.00
14594;BME280;7383;52.354;9.756;2023-10-19T07:10:46;-12644.41;;;10.86;100.00
14594;BME280;7383;52.354;9.756;2023-10-19T07:13:16;-12643.88;;;10.83;100.00
14594;BME280;7383;52.354;9.756;2023-10-19T07:15:45;-12644.03;;;10.84;100.00
14594;BME280;7383;52.354;9.756;2023-10-19T07:18:11;-12643.97;;;10.83;100.00
14594;BME280;7383;52.354;9.756;2023-10-19T07:20:39;-12644.31;;;10.85;100.00
14594;BME280;7383;52.354;9.756;2023-10-19T07:23:08;-12644.41;;;10.86;100.00
14594;BME280;7383;52.354;9.756;2023-10-19T07:25:44;-12643.63;;;10.81;100.00
14594;BME280;7383;52.354;9.756;2023-10-19T07:28:12;-12643.88;;;10.83;100.00
14594;BME280;7383;52.354;9.756;2023-10-19T07:30:41;-12643.97;;;10.83;100.00
14594;BME280;7383;52.354;9.756;2023-10-19T07:33:09;-12644.41;;;10.86;100.00
14594;BME280;7383;52.354;9.756;2023-10-19T07:35:37;-12644.91;;;10.89;100.00
14594;BME280;7383;52.354;9.756;2023-10-19T07:38:04;-12644.56;;;10.87;100.00
14594;BME280;7383;52.354;9.756;2023-10-19T07:40:33;-12645.09;;;10.90;100.00
14594;BME280;7383;52.354;9.756;2023-10-19T07:42:59;-12645.09;;;10.90;100.00
14594;BME280;7383;52.354;9.756;2023-10-19T07:45:26;-12644.91;;;10.89;100.00
14594;BME280;7383;52.354;9.756;2023-10-19T07:47:55;-12645.09;;;10.90;100.00
14594;BME280;7383;52.354;9.756;2023-10-19T07:50:22;-12645.53;;;10.93;100.00
14594;BME280;7383;52.354;9.756;2023-10-19T07:52:50;-12646.13;;;10.96;100.00
14594;BME280;7383;52.354;9.756;2023-10-19T07:55:18;-12646.41;;;10.98;100.00
14594;BME280;7383;52.354;9.756;2023-10-19T07:57:45;-12646.50;;;10.98;100.00
14594;BME280;7383;52.354;9.756;2023-10-19T08:00:12;-12647.19;;;11.02;100.00
14594;BME280;7383;52.354;9.756;2023-10-19T08:02:40;-12647.28;;;11.03;100.00
14594;BME280;7383;52.354;9.756;2023-10-19T08:05:12;-12647.44;;;11.04;100.00
14594;BME280;7383;52.354;9.756;2023-10-19T08:07:38;-12647.53;;;11.04;100.00
14594;BME280;7383;52.354;9.756;2023-10-19T08:10:08;-12646.75;;;11.00;100.00
14594;BME280;7383;52.354;9.756;2023-10-19T08:12:35;-12646.75;;;11.00;100.00
14594;BME280;7383;52.354;9.756;2023-10-19T08:15:02;-12647.38;;;11.03;100.00
14594;BME280;7383;52.354;9.756;2023-10-19T08:17:29;-12648.25;;;11.08;100.00
14594;BME280;7383;52.354;9.756;2023-10-19T08:19:55;-12648.94;;;11.12;100.00
14594;BME280;7383;52.354;9.756;2023-10-19T08:22:24;-12649.97;;;11.18;100.00
14594;BME280;7383;52.354;9.756;2023-10-19T08:24:52;-12650.69;;;11.22;100.00
14594;BME280;7383;52.354;9.756;2023-10-19T08:27:19;-12650.69;;;11.22;100.00
14594;BME280;7383;52.354;9.756;2023-10-19T08:29:49;-12650.16;;;11.19;100.00
14594;BME280;7383;52.354;9.756;2023-10-19T08:32:16;-12649.97;;;11.18;100.00
14594;BME280;7383;52.354;9.756;2023-10-19T08:34:42;-12649.72;;;11.17;100.00
14594;BME280;7383;52.354;9.756;2023-10-19T08:37:08;-12649.91;;;11.18;100.00
14594;BME280;7383;52.354;9.756;2023-10-19T08:39:37;-12650.34;;;11.20;100.00
14594;BME280;7383;52.354;9.756;2023-10-19T08:42:04;-12650.34;;;11.20;100.00
14594;BME280;7383;52.354;9.756;2023-10-19T08:44:31;-12650.69;;;11.22;100.00
14594;BME280;7383;52.354;9.756;2023-10-19T08:46:59;-12651.19;;;11.25;100.00
14594;BME280;7383;52.354;9.756;2023-10-19T08:49:26;-12651.38;;;11.26;100.00
14594;BME280;7383;52.354;9.756;2023-10-19T08:51:54;-12652.00;;;11.30;100.00
14594;BME280;7383;52.354;9.756;2023-10-19T08:54:22;-12652.34;;;11.32;100.00
14594;BME280;7383;52.354;9.756;2023-10-19T08:56:52;-12652.41;;;11.32;100.00
14594;BME280;7383;52.354;9.756;2023-10-19T08:59:21;-12653.13;;;11.36;100.00
14594;BME280;7383;52.354;9.756;2023-10-19T09:01:48;-12653.56;;;11.39;100.00
14594;BME280;7383;52.354;9.756;2023-10-19T09:04:14;-12653.38;;;11.38;100.00
14594;BME280;7383;52.354;9.756;2023-10-19T09:06:41;-12654.16;;;11.43;100.00
14594;BME280;7383;52.354;9.756;2023-10-19T09:09:09;-12654.34;;;11.44;100.00
14594;BME280;7383;52.354;9.756;2023-10-19T09:11:42;-12654.16;;;11.43;100.00
14594;BME280;7383;52.354;9.756;2023-10-19T09:14:10;-12654.59;;;11.45;100.00
14594;BME280;7383;52.354;9.756;2023-10-19T09:16:38;-12655.66;;;11.51;100.00
14594;BME280;7383;52.354;9.756;2023-10-19T09:19:04;-12656.00;;;11.53;100.00
14594;BME280;7383;52.354;9.756;2023-10-19T09:21:31;-12656.09;;;11.54;100.00
14594;BME280;7383;52.354;9.756;2023-10-19T09:23:58;-12655.56;;;11.51;100.00
14594;BME280;7383;52.354;9.756;2023-10-19T09:26:25;-12656.69;;;11.57;100.00
14594;BME280;7383;52.354;9.756;2023-10-19T09:28:52;-12657.75;;;11.63;100.00
14594;BME280;7383;52.354;9.756;2023-10-19T09:31:21;-12657.22;;;11.60;100.00
14594;BME280;7383;52.354;9.756;2023-10-19T09:33:50;-12657.91;;;11.64;100.00
14594;BME280;7383;52.354;9.756;2023-10-19T09:36:18;-12659.22;;;11.72;100.00
14594;BME280;7383;52.354;9.756;2023-10-19T09:38:48;-12660.63;;;11.80;100.00
14594;BME280;7383;52.354;9.756;2023-10-19T09:41:17;-12661.66;;;11.86;100.00
14594;BME280;7383;52.354;9.756;2023-10-19T09:43:45;-12662.63;;;11.92;100.00
14594;BME280;7383;52.354;9.756;2023-10-19T09:46:22;-12663.41;;;11.96;100.00
14594;BME280;7383;52.354;9.756;2023-10-19T09:48:49;-12664.63;;;12.03;100.00
14594;BME280;7383;52.354;9.756;2023-10-19T09:51:18;-12665.25;;;12.07;100.00
14594;BME280;7383;52.354;9.756;2023-10-19T09:53:49;-12665.41;;;12.08;100.00
14594;BME280;7383;52.354;9.756;2023-10-19T09:56:20;-12664.91;;;12.05;100.00
14594;BME280;7383;52.354;9.756;2023-10-19T09:58:49;-12664.47;;;12.02;100.00
14594;BME280;7383;52.354;9.756;2023-10-19T10:01:17;-12664.28;;;12.01;100.00
14594;BME280;7383;52.354;9.756;2023-10-19T10:03:49;-12664.91;;;12.05;100.00
14594;BME280;7383;52.354;9.756;2023-10-19T10:06:17;-12665.78;;;12.10;100.00
14594;BME280;7383;52.354;9.756;2023-10-19T10:08:53;-12665.50;;;12.08;100.00
14594;BME280;7383;52.354;9.756;2023-10-19T10:11:22;-12665.84;;;12.10;100.00
14594;BME280;7383;52.354;9.756;2023-10-19T10:13:49;-12665.25;;;12.07;100.00
14594;BME280;7383;52.354;9.756;2023-10-19T10:16:18;-12664.63;;;12.03;100.00
14594;BME280;7383;52.354;9.756;2023-10-19T10:18:48;-12664.53;;;12.03;100.00
14594;BME280;7383;52.354;9.756;2023-10-19T10:21:19;-12665.25;;;12.07;100.00
14594;BME280;7383;52.354;9.756;2023-10-19T10:23:50;-12666.28;;;12.13;100.00
14594;BME280;7383;52.354;9.756;2023-10-19T10:26:20;-12666.56;;;12.14;100.00
14594;BME280;7383;52.354;9.756;2023-10-19T10:29:08;-12667.06;;;12.17;100.00
14594;BME280;7383;52.354;9.756;2023-10-19T10:31:41;-12667.25;;;12.18;100.00
14594;BME280;7383;52.354;9.756;2023-10-19T10:34:10;-12667.00;;;12.17;100.00
14594;BME280;7383;52.354;9.756;2023-10-19T10:36:57;-12667.16;;;12.18;100.00
14594;BME280;7383;52.354;9.756;2023-10-19T10:39:25;-12667.06;;;12.17;100.00
14594;BME280;7383;52.354;9.756;2023-10-19T10:41:55;-12667.50;;;12.20;100.00
14594;BME280;7383;52.354;9.756;2023-10-19T10:44:35;-12667.84;;;12.22;100.00
14594;BME280;7383;52.354;9.756;2023-10-19T10:47:03;-12667.69;;;12.21;100.00
14594;BME280;7383;52.354;9.756;2023-10-19T10:49:33;-12668.28;;;12.24;100.00
14594;BME280;7383;52.354;9.756;2023-10-19T10:51:59;-12668.13;;;12.23;100.00
14594;BME280;7383;52.354;9.756;2023-10-19T10:54:26;-12667.41;;;12.19;100.00
14594;BME280;7383;52.354;9.756;2023-10-19T10:56:52;-12667.59;;;12.20;100.00
14594;BME280;7383;52.354;9.756;2023-10-19T10:59:19;-12667.59;;;12.20;100.00
14594;BME280;7383;52.354;9.756;2023-10-19T11:01:46;-12667.25;;;12.18;100.00
14594;BME280;7383;52.354;9.756;2023-10-19T11:04:12;-12667.59;;;12.20;100.00
14594;BME280;7383;52.354;9.756;2023-10-19T11:06:49;-12667.59;;;12.20;100.00
14594;BME280;7383;52.354;9.756;2023-10-19T11:09:15;-12668.28;;;12.24;100.00
14594;BME280;7383;52.354;9.756;2023-10-19T11:11:44;-12668.56;;;12.26;100.00
14594;BME280;7383;52.354;9.756;2023-10-19T11:14:11;-12668.91;;;12.28;100.00
14594;BME280;7383;52.354;9.756;2023-10-19T11:16:38;-12668.38;;;12.25;100.00
14594;BME280;7383;52.354;9.756;2023-10-19T11:19:05;-12668.03;;;12.23;100.00
14594;BME280;7383;52.354;9.756;2023-10-19T11:21:32;-12667.94;;;12.22;100.00
14594;BME280;7383;52.354;9.756;2023-10-19T11:24:00;-12667.59;;;12.20;100.00
14594;BME280;7383;52.354;9.756;2023-10-19T11:26:27;-12667.78;;;12.21;100.00
14594;BME280;7383;52.354;9.756;2023-10-19T11:28:58;-12668.47;;;12.25;100.00
14594;BME280;7383;52.354;9.756;2023-10-19T11:31:26;-12668.81;;;12.27;100.00
14594;BME280;7383;52.354;9.756;2023-10-19T11:33:54;-12669.16;;;12.29;100.00
14594;BME280;7383;52.354;9.756;2023-10-19T11:36:21;-12669.50;;;12.31;100.00
14594;BME280;7383;52.354;9.756;2023-10-19T11:38:50;-12669.84;;;12.33;100.00
14594;BME280;7383;52.354;9.756;2023-10-19T11:41:19;-12668.91;;;12.28;100.00
14594;BME280;7383;52.354;9.756;2023-10-19T11:43:47;-12668.72;;;12.27;100.00
14594;BME280;7383;52.354;9.756;2023-10-19T11:46:14;-12668.47;;;12.25;100.00
14594;BME280;7383;52.354;9.756;2023-10-19T11:48:43;-12668.22;;;12.24;100.00
14594;BME280;7383;52.354;9.756;2023-10-19T11:51:09;-12668.38;;;12.25;100.00
14594;BME280;7383;52.354;9.756;2023-10-19T11:53:38;-12669.00;;;12.28;100.00
14594;BME280;7383;52.354;9.756;2023-10-19T11:56:06;-12668.72;;;12.27;100.00
14594;BME280;7383;52.354;9.756;2023-10-19T11:58:35;-12668.72;;;12.27;100.00
14594;BME280;7383;52.354;9.756;2023-10-19T12:01:04;-12668.28;;;12.24;100.00
14594;BME280;7383;52.354;9.756;2023-10-19T12:03:33;-12668.91;;;12.28;100.00
14594;BME280;7383;52.354;9.756;2023-10-19T12:06:02;-12669.06;;;12.29;100.00
14594;BME280;7383;52.354;9.756;2023-10-19T12:08:31;-12669.50;;;12.31;100.00
14594;BME280;7383;52.354;9.756;2023-10-19T12:10:58;-12669.50;;;12.31;100.00
14594;BME280;7383;52.354;9.756;2023-10-19T12:13:26;-12669.50;;;12.31;100.00
14594;BME280;7383;52.354;9.756;2023-10-19T12:15:54;-12669.84;;;12.33;100.00
14594;BME280;7383;52.354;9.756;2023-10-19T12:18:21;-12670.28;;;12.36;100.00
14594;BME280;7383;52.354;9.756;2023-10-19T12:20:47;-12669.78;;;12.33;100.00
14594;BME280;7383;52.354;9.756;2023-10-19T12:23:14;-12669.25;;;12.30;100.00
14594;BME280;7383;52.354;9.756;2023-10-19T12:25:40;-12669.44;;;12.31;100.00
14594;BME280;7383;52.354;9.756;2023-10-19T12:28:08;-12669.84;;;12.33;100.00
14594;BME280;7383;52.354;9.756;2023-10-19T12:30:39;-12671.00;;;12.40;100.00
14594;BME280;7383;52.354;9.756;2023-10-19T12:33:07;-12671.78;;;12.45;100.00
14594;BME280;7383;52.354;9.756;2023-10-19T12:35:37;-12672.56;;;12.49;100.00
14594;BME280;7383;52.354;9.756;2023-10-19T12:38:17;-12673.69;;;12.56;100.00
14594;BME280;7383;52.354;9.756;2023-10-19T12:40:46;-12674.31;;;12.59;100.00
14594;BME280;7383;52.354;9.756;2023-10-19T12:43:13;-12675.09;;;12.64;100.00
14594;BME280;7383;52.354;9.756;2023-10-19T12:45:41;-12676.13;;;12.70;100.00
14594;BME280;7383;52.354;9.756;2023-10-19T12:48:10;-12676.47;;;12.72;100.00
14594;BME280;7383;52.354;9.756;2023-10-19T12:50:37;-12676.81;;;12.74;100.00
14594;BME280;7383;52.354;9.756;2023-10-19T12:53:04;-12676.31;;;12.71;100.00
14594;BME280;7383;52.354;9.756;2023-10-19T12:55:31;-12675.97;;;12.69;100.00
14594;BME280;7383;52.354;9.756;2023-10-19T12:57:58;-12675.00;;;12.63;100.00